Time;durP1;ratioP1;P1;durP2;ratioP2;P2;SDS_P1;SDS_P2;PMS_P1;PMS_P2;Temp;Humidity;BMP_temperature;BMP_pressure;BME280_temperature;BME280_humidity;BME280_pressure;Samples;Min_cycle;Max_cycle;Signal;HPM_P1;HPM_P2
2022/12/27 00:02:05;;;;;;;;;;;;;;;;;;;;;
2022/12/27 00:04:31;;;;;;;0.00;0.00;;;;;;;2.30;100.00;101082.88;5927097;24;20047;-82
2022/12/27 00:06:56;;;;;;;0.10;0.10;;;;;;;2.31;100.00;101083.69;6006847;23;20050;-79
2022/12/27 00:09:22;;;;;;;0.10;0.10;;;;;;;2.31;100.00;101084.56;6180016;23;20083;-75
2022/12/27 00:11:47;;;;;;;0.00;0.00;;;;;;;2.35;100.00;101082.28;6209221;23;20015;-76
2022/12/27 00:14:13;;;;;;;0.00;0.00;;;;;;;2.37;100.00;101088.34;6183320;23;20008;-75
2022/12/27 00:16:38;;;;;;;0.10;0.10;;;;;;;2.37;100.00;101089.16;6180914;23;20013;-78
2022/12/27 00:19:07;;;;;;;0.00;0.00;;;;;;;2.37;100.00;101082.94;6185694;23;20012;-77
2022/12/27 00:21:42;;;;;;;;;;;;;;;;;;;;;
2022/12/27 00:24:10;;;;;;;0.10;0.10;;;;;;;2.39;100.00;101080.88;6212134;23;20075;-76
2022/12/27 00:26:40;;;;;;;0.10;0.10;;;;;;;2.34;100.00;101088.72;6205664;23;20009;-77
2022/12/27 00:29:06;;;;;;;0.00;0.00;;;;;;;2.47;100.00;101113.13;6210396;23;20009;-76
2022/12/27 00:31:32;;;;;;;0.00;0.00;;;;;;;2.37;100.00;101104.53;6209627;23;20000;-76
2022/12/27 00:34:00;;;;;;;0.00;0.00;;;;;;;2.43;100.00;101120.75;6203932;23;20092;-76
2022/12/27 00:36:28;;;;;;;0.00;0.00;;;;;;;2.41;100.00;101114.75;6208433;23;20538;-75
2022/12/27 00:38:56;;;;;;;0.00;0.00;;;;;;;2.34;100.00;101110.31;6203392;23;20009;-76
2022/12/27 00:41:21;;;;;;;0.00;0.00;;;;;;;2.33;100.00;101098.66;6209315;23;20335;-77
2022/12/27 00:43:47;;;;;;;0.00;0.00;;;;;;;2.37;100.00;101109.94;6204991;23;20005;-77
2022/12/27 00:46:13;;;;;;;0.00;0.00;;;;;;;2.40;100.00;101110.34;6184493;23;20092;-75
2022/12/27 00:48:38;;;;;;;0.00;0.00;;;;;;;2.36;100.00;101100.16;6210255;23;20363;-77
2022/12/27 00:51:07;;;;;;;0.10;0.10;;;;;;;2.36;100.00;101097.47;6182089;23;20008;-75
2022/12/27 00:53:36;;;;;;;0.00;0.00;;;;;;;2.21;100.00;101079.47;6212364;23;20005;-76
2022/12/27 00:56:06;;;;;;;0.00;0.00;;;;;;;2.27;100.00;101084.09;6207186;23;20083;-76
2022/12/27 00:58:32;;;;;;;0.00;0.00;;;;;;;2.37;100.00;101094.56;6211038;23;20008;-76
2022/12/27 01:01:09;;;;;;;0.00;0.00;;;;;;;2.35;100.00;101087.69;6179960;23;20087;-75
2022/12/27 01:03:34;;;;;;;0.00;0.00;;;;;;;2.36;100.00;101087.47;6208851;23;20012;-75
2022/12/27 01:06:09;;;;;;;0.00;0.00;;;;;;;2.40;100.00;101096.03;6207594;23;20448;-76
2022/12/27 01:08:34;;;;;;;0.10;0.10;;;;;;;2.38;100.00;101095.38;6209285;23;20054;-75
2022/12/27 01:11:01;;;;;;;0.10;0.10;;;;;;;2.35;100.00;101095.78;6205547;23;20012;-76
2022/12/27 01:13:26;;;;;;;0.00;0.00;;;;;;;2.39;100.00;101097.06;6209470;23;20016;-76
2022/12/27 01:15:52;;;;;;;0.00;0.00;;;;;;;2.31;100.00;101084.56;6211148;23;20501;-76
2022/12/27 01:18:17;;;;;;;0.00;0.00;;;;;;;2.33;100.00;101103.25;6206801;23;20077;-77
2022/12/27 01:20:43;;;;;;;0.00;0.00;;;;;;;2.17;100.00;101088.97;6211236;23;20676;-76
2022/12/27 01:23:08;;;;;;;0.10;0.10;;;;;;;2.16;100.00;101087.34;6206819;23;20058;-76
2022/12/27 01:25:34;;;;;;;0.00;0.00;;;;;;;2.16;100.00;101095.44;6182437;23;20429;-76
2022/12/27 01:27:59;;;;;;;0.00;0.00;;;;;;;2.07;100.00;101083.94;6184071;23;20012;-75
2022/12/27 01:30:25;;;;;;;0.10;0.10;;;;;;;2.02;100.00;101080.16;6204233;23;20005;-76
2022/12/27 01:32:53;;;;;;;0.10;0.10;;;;;;;1.99;100.00;101089.44;6210377;23;20087;-75
2022/12/27 01:35:18;;;;;;;0.00;0.00;;;;;;;1.87;100.00;101083.75;6206521;23;20008;-75
2022/12/27 01:37:43;;;;;;;0.10;0.10;;;;;;;1.85;100.00;101090.34;6183772;23;20731;-76
2022/12/27 01:40:09;;;;;;;0.10;0.10;;;;;;;1.87;100.00;101093.69;6208165;23;20390;-75
2022/12/27 01:42:54;;;;;;;0.10;0.10;;;;;;;1.84;100.00;101100.31;6181136;23;20482;-76
2022/12/27 01:45:25;;;;;;;0.00;0.00;;;;;;;1.82;100.00;101096.13;6184574;23;20031;-75
2022/12/27 01:48:11;;;;;;;0.10;0.10;;;;;;;1.78;100.00;101109.16;6206840;23;20151;-76
2022/12/27 01:50:58;;;;;;;0.00;0.00;;;;;;;1.76;100.00;101108.50;6205945;23;19997;-76
2022/12/27 01:53:31;;;;;;;0.00;0.00;;;;;;;1.73;100.00;101095.41;6210416;23;20004;-75
2022/12/27 01:56:01;;;;;;;0.00;0.00;;;;;;;1.80;100.00;101109.81;6205261;23;20008;-76
2022/12/27 01:58:36;;;;;;;0.00;0.00;;;;;;;1.76;100.00;101103.13;6208261;23;20343;-76
2022/12/27 02:01:07;;;;;;;0.00;0.00;;;;;;;1.70;100.00;101093.94;6205017;23;20011;-76
2022/12/27 02:03:58;;;;;;;0.00;0.00;;;;;;;1.76;100.00;101103.13;6206666;23;20013;-75
2022/12/27 02:06:26;;;;;;;0.10;0.10;;;;;;;1.70;100.00;101101.19;6209293;23;20016;-76
2022/12/27 02:09:13;;;;;;;0.10;0.10;;;;;;;1.74;100.00;101113.28;6207719;23;20016;-77
2022/12/27 02:11:51;;;;;;;0.00;0.00;;;;;;;1.64;100.00;101110.88;6208089;23;20001;-76
2022/12/27 02:14:22;;;;;;;0.00;0.00;;;;;;;1.61;100.00;101115.78;6208764;23;20004;-77
2022/12/27 02:16:48;;;;;;;0.00;0.00;;;;;;;1.64;100.00;101120.84;6205089;23;20003;-77
2022/12/27 02:19:39;;;;;;;0.10;0.10;;;;;;;1.66;100.00;101129.56;6205831;23;20024;-76
2022/12/27 02:22:20;;;;;;;0.10;0.10;;;;;;;1.60;100.00;101119.53;6177240;23;20895;-77
2022/12/27 02:24:51;;;;;;;0.00;0.00;;;;;;;1.48;100.00;101136.19;6206317;23;20621;-77
2022/12/27 02:27:55;;;;;;;0.00;0.00;;;;;;;1.41;100.00;101123.66;6201035;23;20540;-77
2022/12/27 02:30:21;;;;;;;0.10;0.10;;;;;;;1.45;100.00;101128.50;6206731;23;20382;-75
2022/12/27 02:32:55;;;;;;;0.00;0.00;;;;;;;1.52;100.00;101118.63;6184325;23;20061;-75
2022/12/27 02:35:29;;;;;;;0.00;0.00;;;;;;;1.59;100.00;101124.06;6210350;23;20626;-76
2022/12/27 02:38:08;;;;;;;0.00;0.00;;;;;;;1.52;100.00;101113.22;6209999;23;20004;-76
2022/12/27 02:55:04;;;;;;;0.00;0.00;;;;;;;1.42;100.00;101117.22;6207070;23;20055;-75
2022/12/27 02:57:48;;;;;;;0.10;0.10;;;;;;;1.44;100.00;101129.50;6209021;23;20686;-76
2022/12/27 03:03:27;;;;;;;0.00;0.00;;;;;;;1.47;100.00;101121.03;6207333;23;20064;-74
2022/12/27 03:15:53;;;;;;;0.00;0.00;;;;;;;1.42;100.00;101101.06;6212597;23;20143;-74
2022/12/27 03:18:02;;;;;;;0.00;0.00;;;;;;;1.60;100.00;101106.88;6209738;23;20451;-74
2022/12/27 03:26:02;;;;;;;0.10;0.10;;;;;;;1.65;100.00;101090.13;6209072;23;20493;-76
2022/12/27 03:43:09;;;;;;;0.10;0.10;;;;;;;1.47;100.00;101077.09;6208301;23;20070;-76
2022/12/27 03:43:26;;;;;;;0.10;0.10;;;;;;;1.40;100.00;101074.31;6207683;23;20056;-76
2022/12/27 03:48:57;;;;;;;;;;;;;;;1.46;100.00;101081.66;6208368;23;20027;-75
2022/12/27 03:51:29;;;;;;;0.00;0.00;;;;;;;1.46;100.00;101076.25;6210245;23;19990;-76
2022/12/27 03:54:09;;;;;;;0.10;0.10;;;;;;;1.34;100.00;101050.81;6205855;23;20012;-76
2022/12/27 03:56:41;;;;;;;0.00;0.00;;;;;;;1.46;100.00;101060.09;6209569;23;20004;-75
2022/12/27 03:59:13;;;;;;;0.00;0.00;;;;;;;1.50;100.00;101061.34;6204609;23;20020;-76
2022/12/27 04:01:40;;;;;;;0.00;0.00;;;;;;;1.48;100.00;101059.91;6210387;23;20285;-75
2022/12/27 04:04:05;;;;;;;0.10;0.10;;;;;;;1.44;100.00;101055.91;6181110;23;20008;-74
2022/12/27 04:06:30;;;;;;;0.00;0.00;;;;;;;1.54;100.00;101062.66;6207026;23;20459;-76
2022/12/27 04:36:28;;;;;;;0.00;0.00;;;;;;;1.95;100.00;101068.47;6190083;23;20047;-75
2022/12/27 04:38:53;;;;;;;0.10;0.10;;;;;;;1.92;100.00;101051.63;6179571;23;20008;-76
2022/12/27 04:55:12;;;;;;;0.10;0.10;;;;;;;2.23;100.00;101055.84;6210879;23;20236;-76
2022/12/27 04:57:37;;;;;;;0.00;0.00;;;;;;;2.26;100.00;101050.06;6207781;23;20004;-75
2022/12/27 05:02:48;;;;;;;0.00;0.00;;;;;;;2.43;100.00;101047.06;6206352;23;20015;-75
2022/12/27 05:05:14;;;;;;;0.00;0.00;;;;;;;2.43;100.00;101034.38;6209831;23;20012;-75
2022/12/27 05:15:59;;;;;;;0.00;0.00;;;;;;;2.60;100.00;101040.31;6230045;23;20339;-76
2022/12/27 05:18:25;;;;;;;0.00;0.00;;;;;;;2.60;100.00;101036.78;6181055;23;20008;-76
2022/12/27 05:20:51;;;;;;;0.00;0.00;;;;;;;2.66;100.00;101043.25;6211277;23;20016;-76
2022/12/27 05:26:03;;;;;;;0.10;0.10;;;;;;;2.74;100.00;101048.50;6189024;23;20019;-75
2022/12/27 05:28:28;;;;;;;0.00;0.00;;;;;;;2.76;100.00;101049.97;6206719;23;20004;-76
2022/12/27 05:31:00;;;;;;;0.00;0.00;;;;;;;2.77;100.00;101040.00;6208594;23;20331;-75
2022/12/27 05:33:26;;;;;;;0.10;0.10;;;;;;;2.80;100.00;101034.19;6207413;23;20000;-76
2022/12/27 05:35:51;;;;;;;0.10;0.10;;;;;;;2.88;100.00;101035.91;6185165;23;20362;-76
2022/12/27 05:38:17;;;;;;;0.00;0.00;;;;;;;2.87;100.00;101029.66;6209297;23;20009;-76
2022/12/27 05:40:42;;;;;;;0.00;0.00;;;;;;;2.98;100.00;101041.78;6154444;23;20017;-75
2022/12/27 05:43:07;;;;;;;0.00;0.00;;;;;;;2.95;100.00;101026.78;6210230;23;20087;-75
2022/12/27 05:45:33;;;;;;;0.00;0.00;;;;;;;3.01;100.00;101029.72;6203826;23;20063;-77
2022/12/27 05:47:59;;;;;;;0.00;0.00;;;;;;;2.99;100.00;101026.38;6209404;23;20020;-76
2022/12/27 05:50:24;;;;;;;0.00;0.00;;;;;;;3.05;100.00;101036.38;6186405;23;20339;-77
2022/12/27 05:52:50;;;;;;;0.10;0.10;;;;;;;3.07;100.00;101028.94;6213675;23;20028;-76
2022/12/27 05:55:16;;;;;;;0.00;0.00;;;;;;;3.14;100.00;101041.44;6165696;23;20009;-75
2022/12/27 05:57:41;;;;;;;0.00;0.00;;;;;;;3.18;100.00;101031.03;6208238;23;20008;-75
2022/12/27 06:00:07;;;;;;;0.10;0.10;;;;;;;3.16;100.00;101025.00;6184571;23;20382;-75
2022/12/27 06:02:33;;;;;;;0.00;0.00;;;;;;;3.26;100.00;101021.94;6179172;23;20019;-75
2022/12/27 06:04:58;;;;;;;0.00;0.00;;;;;;;3.27;100.00;101020.88;6211844;23;20009;-76
2022/12/27 06:07:24;;;;;;;0.00;0.00;;;;;;;3.30;100.00;101028.56;6205827;23;20674;-76
2022/12/27 06:09:49;;;;;;;0.00;0.00;;;;;;;3.30;100.00;101012.34;6208006;23;20015;-76
2022/12/27 06:12:14;;;;;;;0.00;0.00;;;;;;;3.38;100.00;101024.88;6160063;23;20499;-76
2022/12/27 06:14:40;;;;;;;0.10;0.10;;;;;;;3.38;100.00;101020.28;6182867;23;20101;-75
2022/12/27 06:17:05;;;;;;;0.10;0.10;;;;;;;3.40;100.00;101014.69;6207396;23;20411;-76
2022/12/27 06:19:31;;;;;;;0.10;0.10;;;;;;;3.41;100.00;101006.34;6209601;23;20386;-76
2022/12/27 06:21:56;;;;;;;0.10;0.10;;;;;;;3.43;100.00;100992.63;6179180;23;20088;-76
2022/12/27 06:24:24;;;;;;;0.10;0.10;;;;;;;3.41;100.00;100992.00;6210616;23;20005;-75
2022/12/27 06:26:49;;;;;;;0.10;0.10;;;;;;;3.43;100.00;101000.75;6156465;23;20870;-75
2022/12/27 06:29:17;;;;;;;0.00;0.00;;;;;;;3.42;100.00;100991.00;6184461;23;20038;-76
2022/12/27 06:31:42;;;;;;;0.10;0.10;;;;;;;3.46;100.00;100984.97;6206589;23;20518;-76
2022/12/27 06:34:10;;;;;;;0.00;0.00;;;;;;;3.48;100.00;100982.88;6183131;23;20080;-75
2022/12/27 06:36:36;;;;;;;0.00;0.00;;;;;;;3.60;100.00;100993.91;6208449;23;20034;-76
2022/12/27 06:39:02;;;;;;;0.00;0.00;;;;;;;3.63;100.00;100984.56;6203994;23;20307;-76
2022/12/27 06:41:27;;;;;;;0.00;0.00;;;;;;;3.58;100.00;100970.84;6207958;23;20008;-76
2022/12/27 06:43:55;;;;;;;0.00;0.00;;;;;;;3.65;100.00;100983.31;6205719;23;20404;-76
2022/12/27 06:46:23;;;;;;;0.10;0.10;;;;;;;3.66;100.00;100989.56;6207783;23;20005;-77
2022/12/27 06:48:49;;;;;;;0.00;0.00;;;;;;;3.61;100.00;100982.06;6202837;23;20009;-76
2022/12/27 06:51:17;;;;;;;0.03;0.03;;;;;;;3.66;100.00;100995.81;6207988;23;20435;-75
2022/12/27 06:53:43;;;;;;;0.03;0.03;;;;;;;3.69;100.00;100999.97;6209985;23;20003;-74
2022/12/27 06:56:15;;;;;;;0.00;0.00;;;;;;;3.64;100.00;100987.06;6203028;23;20000;-76
2022/12/27 06:58:41;;;;;;;0.00;0.00;;;;;;;3.56;100.00;100973.72;6208512;23;20004;-76
2022/12/27 07:01:11;;;;;;;0.00;0.00;;;;;;;3.69;100.00;100977.50;6206305;23;20012;-75
2022/12/27 07:03:39;;;;;;;0.00;0.00;;;;;;;3.73;100.00;100987.69;6208113;23;20000;-74
2022/12/27 07:06:10;;;;;;;0.00;0.00;;;;;;;3.83;100.00;101001.63;6203408;23;20504;-75
2022/12/27 07:08:37;;;;;;;0.05;0.05;;;;;;;3.73;100.00;100990.41;6207744;23;20131;-75
2022/12/27 07:11:16;;;;;;;0.00;0.00;;;;;;;3.87;100.00;101015.59;6202732;23;20012;-75
2022/12/27 07:13:45;;;;;;;0.00;0.00;;;;;;;3.92;100.00;101010.38;6209802;23;20092;-75
2022/12/27 07:16:16;;;;;;;0.00;0.00;;;;;;;4.00;100.00;101003.94;6209512;23;20001;-78
2022/12/27 07:18:42;;;;;;;0.00;0.00;;;;;;;3.99;100.00;100992.28;6207710;23;20028;-76
2022/12/27 07:21:19;;;;;;;0.00;0.00;;;;;;;4.03;100.00;101000.84;6208301;23;20020;-78
2022/12/27 07:24:05;;;;;;;0.10;0.10;;;;;;;4.11;100.00;101007.91;6205855;23;20381;-77
2022/12/27 07:26:38;;;;;;;0.00;0.00;;;;;;;4.00;100.00;100980.41;6197963;23;20004;-77
2022/12/27 07:29:06;;;;;;;0.00;0.00;;;;;;;4.20;100.00;100990.38;6207196;23;20012;-77
2022/12/27 07:31:43;;;;;;;;;;;;;;;;;;;;;
2022/12/27 07:34:10;;;;;;;0.08;0.08;;;;;;;4.31;100.00;100980.81;6207959;23;20080;-77
2022/12/27 07:36:39;;;;;;;0.00;0.00;;;;;;;4.35;100.00;100980.19;6208795;23;20028;-77
2022/12/27 07:39:06;;;;;;;0.00;0.00;;;;;;;4.40;100.00;100984.94;6204873;23;20008;-77
2022/12/27 07:41:32;;;;;;;0.00;0.00;;;;;;;4.44;100.00;100985.34;6210802;23;20372;-77
2022/12/27 07:43:57;;;;;;;0.00;0.00;;;;;;;4.24;100.00;100966.44;6204492;23;20074;-77
2022/12/27 07:46:24;;;;;;;0.00;0.00;;;;;;;4.19;100.00;100977.88;6184536;23;20383;-77
2022/12/27 07:48:55;;;;;;;0.00;0.00;;;;;;;4.09;100.00;100966.66;6206285;23;20040;-78
2022/12/27 07:51:22;;;;;;;0.10;0.10;;;;;;;4.08;100.00;100978.53;6212083;23;20118;-77
2022/12/27 07:53:48;;;;;;;0.00;0.00;;;;;;;4.07;100.00;100976.88;6209669;23;20004;-77
2022/12/27 07:56:22;;;;;;;0.00;0.00;;;;;;;3.98;100.00;100962.72;6208867;23;20080;-76
2022/12/27 07:58:58;;;;;;;0.10;0.10;;;;;;;4.02;100.00;100982.91;6209916;23;20015;-75
2022/12/27 08:01:26;;;;;;;0.10;0.10;;;;;;;3.98;100.00;100978.97;6209933;23;20016;-75
2022/12/27 08:03:51;;;;;;;0.00;0.00;;;;;;;3.94;100.00;100975.84;6208947;23;20040;-76
2022/12/27 08:06:32;;;;;;;0.00;0.00;;;;;;;3.82;100.00;100961.25;6206172;23;20043;-77
2022/12/27 08:09:02;;;;;;;0.00;0.00;;;;;;;3.79;100.00;100965.22;6212403;23;20408;-77
2022/12/27 08:11:29;;;;;;;0.00;0.00;;;;;;;3.71;100.00;100948.34;6206866;23;20000;-77
2022/12/27 08:13:55;;;;;;;0.00;0.00;;;;;;;3.74;100.00;100958.75;6185844;23;20458;-78
2022/12/27 08:16:26;;;;;;;0.00;0.00;;;;;;;3.62;100.00;100962.09;6208483;23;20013;-77
2022/12/27 08:18:52;;;;;;;0.00;0.00;;;;;;;3.59;100.00;100967.06;6182471;23;20087;-77
2022/12/27 08:21:18;;;;;;;0.00;0.00;;;;;;;3.46;100.00;100962.47;6209638;23;20088;-76
2022/12/27 08:23:44;;;;;;;0.00;0.00;;;;;;;3.46;100.00;100966.03;6205690;23;20008;-78
2022/12/27 08:26:09;;;;;;;0.10;0.10;;;;;;;3.52;100.00;100966.22;6210413;23;20055;-78
2022/12/27 08:28:37;;;;;;;0.00;0.00;;;;;;;3.49;100.00;100962.91;6206997;23;20005;-77
2022/12/27 08:31:06;;;;;;;0.00;0.00;;;;;;;3.66;100.00;100985.00;6206881;23;20012;-77
2022/12/27 08:33:37;;;;;;;0.00;0.00;;;;;;;3.76;100.00;100995.38;6206035;23;20014;-77
2022/12/27 08:36:08;;;;;;;0.10;0.10;;;;;;;3.73;100.00;100973.34;6208410;23;20139;-76
2022/12/27 08:38:37;;;;;;;0.00;0.00;;;;;;;3.76;100.00;100972.94;6205273;23;20083;-76
2022/12/27 08:41:02;;;;;;;0.00;0.00;;;;;;;3.83;100.00;100984.59;6208940;23;20005;-78
2022/12/27 08:43:31;;;;;;;0.00;0.00;;;;;;;3.89;100.00;100982.94;6184036;23;20044;-78
2022/12/27 08:46:07;;;;;;;0.00;0.00;;;;;;;3.99;100.00;100992.28;6205713;23;20012;-79
2022/12/27 08:48:35;;;;;;;0.00;0.00;;;;;;;4.08;100.00;100981.25;6209241;23;20091;-79
2022/12/27 08:51:06;;;;;;;0.00;0.00;;;;;;;4.10;100.00;100976.44;6204375;23;20005;-78
2022/12/27 08:53:31;;;;;;;0.00;0.00;;;;;;;4.19;100.00;100994.13;6210535;23;20015;-77
2022/12/27 08:55:56;;;;;;;0.00;0.00;;;;;;;4.24;100.00;100991.63;6155105;23;20347;-78
2022/12/27 08:58:22;;;;;;;0.00;0.00;;;;;;;4.28;100.00;100998.31;6160410;23;20015;-80
2022/12/27 09:00:51;;;;;;;0.00;0.00;;;;;;;4.30;100.00;100987.25;6205951;23;20026;-79
2022/12/27 09:03:20;;;;;;;0.00;0.00;;;;;;;4.28;100.00;100960.41;6185088;23;20012;-77
2022/12/27 09:05:48;;;;;;;0.00;0.00;;;;;;;4.31;100.00;100970.81;6207229;23;20016;-77
2022/12/27 09:08:15;;;;;;;0.00;0.00;;;;;;;4.36;100.00;100959.34;6210476;23;20008;-78
2022/12/27 09:10:40;;;;;;;0.00;0.00;;;;;;;4.45;100.00;100965.34;6209383;23;20309;-77
2022/12/27 09:13:06;;;;;;;0.00;0.00;;;;;;;4.60;100.00;100967.81;6205795;23;20063;-76
2022/12/27 09:15:31;;;;;;;0.00;0.00;;;;;;;4.68;100.00;100954.03;6158271;23;20013;-77
2022/12/27 09:17:57;;;;;;;0.00;0.00;;;;;;;4.74;100.00;100957.78;6183939;23;20035;-77
2022/12/27 09:20:27;;;;;;;0.00;0.00;;;;;;;4.79;100.00;100950.66;6203393;23;20467;-77
2022/12/27 09:23:18;;;;;;;0.00;0.00;;;;;;;4.84;100.00;100952.72;6209880;23;20091;-77
2022/12/27 09:25:51;;;;;;;0.00;0.00;;;;;;;4.85;100.00;100927.31;6210797;23;20434;-75
2022/12/27 09:28:16;;;;;;;0.00;0.00;;;;;;;5.14;100.00;100957.56;6204834;23;20424;-75
2022/12/27 09:30:44;;;;;;;0.00;0.00;;;;;;;5.31;100.00;100947.06;6181108;23;20087;-76
2022/12/27 09:33:12;;;;;;;0.00;0.00;;;;;;;5.53;100.00;100928.53;6209794;23;20004;-77
2022/12/27 09:39:00;;;;;;;0.10;0.10;;;;;;;6.37;100.00;100931.78;6141471;23;20475;-76
2022/12/27 09:42:01;;;;;;;0.10;0.10;;;;;;;7.04;100.00;100930.97;6200595;23;20028;-78
2022/12/27 09:44:49;;;;;;;0.10;0.10;;;;;;;7.89;100.00;100923.59;6208840;23;20039;-82
2022/12/27 09:47:22;;;;;;;0.00;0.00;;;;;;;9.24;100.00;100928.94;6207875;23;20000;-79
2022/12/27 09:49:54;;;;;;;0.00;0.00;;;;;;;12.01;100.00;100922.63;6215272;23;20354;-82
2022/12/27 09:52:36;;;;;;;0.00;0.00;;;;;;;13.41;100.00;100924.88;6208453;23;20083;-80
2022/12/27 09:55:17;;;;;;;0.00;0.00;;;;;;;14.97;100.00;100934.53;6211664;23;19992;-78
2022/12/27 09:57:44;;;;;;;0.00;0.00;;;;;;;14.74;100.00;100917.53;6210098;23;20331;-81
2022/12/27 10:00:20;;;;;;;0.00;0.00;;;;;;;13.41;100.00;100924.03;6212146;23;20424;-83
2022/12/27 10:02:47;;;;;;;0.00;0.00;;;;;;;12.45;100.00;100926.19;6207049;23;19997;-78
2022/12/27 10:05:29;;;;;;;0.00;0.00;;;;;;;13.24;100.00;100929.75;6209060;23;20016;-80
2022/12/27 10:07:55;;;;;;;0.10;0.10;;;;;;;14.90;100.00;100937.56;6208706;23;20004;-80
2022/12/27 10:10:34;;;;;;;0.00;0.00;;;;;;;16.60;100.00;100916.06;6210766;23;20039;-79
2022/12/27 10:13:11;;;;;;;0.00;0.00;;;;;;;18.12;100.00;100921.53;6204813;23;20004;-79
2022/12/27 10:15:56;;;;;;;0.00;0.00;;;;;;;18.94;100.00;100911.63;6207937;23;20051;-82
2022/12/27 10:18:40;;;;;;;;;;;;;;;18.80;100.00;100921.88;6207997;23;20008;-81
2022/12/27 10:21:50;;;;;;;0.00;0.00;;;;;;;17.28;100.00;100912.13;6212270;23;19977;-84
2022/12/27 10:24:36;;;;;;;0.00;0.00;;;;;;;16.09;100.00;100890.69;6216643;23;20012;-82
2022/12/27 10:27:18;;;;;;;0.00;0.00;;;;;;;14.92;100.00;100898.72;6210164;23;19997;-82
2022/12/27 10:29:52;;;;;;;0.00;0.00;;;;;;;13.85;100.00;100879.53;6216100;23;20007;-81
2022/12/27 10:32:17;;;;;;;0.00;0.00;;;;;;;12.96;100.00;100887.94;6210400;23;20095;-81
2022/12/27 10:35:05;;;;;;;;;;;;;;;;;;;;;
2022/12/27 10:37:31;;;;;;;0.00;0.00;;;;;;;11.54;100.00;100865.81;6212950;23;20112;-82
2022/12/27 10:40:12;;;;;;;0.00;0.00;;;;;;;11.53;100.00;100864.13;6210294;23;20087;-82
2022/12/27 10:42:56;;;;;;;;;;;;;;;;;;;;;
2022/12/27 10:45:47;;;;;;;;;;;;;;;;;;;;;
2022/12/27 10:48:23;;;;;;;0.00;0.00;;;;;;;12.03;100.00;100851.94;6216225;23;20084;-83
2022/12/27 10:51:06;;;;;;;0.00;0.00;;;;;;;13.81;100.00;100863.88;6212353;23;20008;-83
2022/12/27 10:54:20;;;;;;;;;;;;;;;;;;;;;
2022/12/27 10:56:48;;;;;;;0.08;0.08;;;;;;;18.14;100.00;100839.88;6212078;23;20024;-82
2022/12/27 10:59:39;;;;;;;0.10;0.10;;;;;;;19.44;93.81;100851.72;6209886;23;20104;-81
2022/12/27 11:02:05;;;;;;;0.00;0.00;;;;;;;19.82;90.85;100868.78;6206346;23;20000;-82
2022/12/27 11:04:31;;;;;;;0.10;0.10;;;;;;;20.28;81.79;100854.78;6211250;23;20008;-81
2022/12/27 11:07:05;;;;;;;0.00;0.00;;;;;;;20.53;81.52;100856.84;6216004;23;20001;-82
2022/12/27 11:09:51;;;;;;;0.00;0.00;;;;;;;17.85;81.03;100845.66;6210533;23;19997;-84
2022/12/27 11:12:27;;;;;;;0.00;0.00;;;;;;;15.22;94.20;100836.31;6192549;23;20008;-82
2022/12/27 11:15:17;;;;;;;0.00;0.00;;;;;;;13.89;99.91;100835.81;6213703;23;20420;-81
2022/12/27 11:17:48;;;;;;;0.00;0.00;;;;;;;12.69;100.00;100831.34;6211277;23;20036;-81
2022/12/27 11:20:36;;;;;;;0.00;0.00;;;;;;;11.78;100.00;100832.53;6209881;23;20078;-81
2022/12/27 11:23:10;;;;;;;0.00;0.00;;;;;;;10.98;100.00;100822.31;6212692;23;20020;-80
2022/12/27 11:25:56;;;;;;;0.00;0.00;;;;;;;10.55;100.00;100816.69;6212170;23;20439;-81
2022/12/27 11:28:49;;;;;;;0.00;0.00;;;;;;;10.48;100.00;100824.25;6209114;23;19996;-80
2022/12/27 11:31:18;;;;;;;0.00;0.00;;;;;;;10.36;100.00;100807.16;6214685;23;20690;-81
2022/12/27 11:33:58;;;;;;;0.00;0.00;;;;;;;10.36;100.00;100824.38;6211474;23;20011;-81
2022/12/27 11:36:40;;;;;;;0.03;0.03;;;;;;;10.40;100.00;100805.59;6213878;23;20423;-81
2022/12/27 11:39:09;;;;;;;0.00;0.00;;;;;;;10.45;100.00;100808.38;6213057;23;20016;-82
2022/12/27 11:41:50;;;;;;;0.00;0.00;;;;;;;10.40;100.00;100813.78;6215612;23;20011;-80
2022/12/27 11:44:19;;;;;;;0.00;0.00;;;;;;;10.26;100.00;100781.31;6210584;23;20013;-81
2022/12/27 11:46:55;;;;;;;0.00;0.00;;;;;;;10.41;100.00;100801.75;6215813;23;20427;-82
2022/12/27 11:49:25;;;;;;;0.10;0.10;;;;;;;10.34;100.00;100781.97;6211282;23;20004;-81
2022/12/27 11:52:06;;;;;;;0.00;0.00;;;;;;;10.40;100.00;100780.97;6212248;23;20001;-81
2022/12/27 11:54:42;;;;;;;0.00;0.00;;;;;;;10.57;100.00;100787.19;6212127;23;20008;-82
2022/12/27 11:57:30;;;;;;;0.10;0.10;;;;;;;10.47;100.00;100776.13;6212861;23;20008;-80
2022/12/27 12:00:13;;;;;;;0.00;0.00;;;;;;;10.40;100.00;100764.56;6214399;23;20006;-81
2022/12/27 12:03:16;;;;;;;0.00;0.00;;;;;;;10.25;100.00;100748.78;6213573;23;20005;-80
2022/12/27 12:06:10;;;;;;;0.00;0.00;;;;;;;10.21;100.00;100751.22;6207260;23;20004;-81
2022/12/27 12:09:06;;;;;;;0.00;0.00;;;;;;;9.90;100.00;100748.09;6215067;23;20004;-81
2022/12/27 12:11:54;;;;;;;0.00;0.00;;;;;;;9.53;100.00;100756.06;6212274;23;20387;-81
2022/12/27 12:15:13;;;;;;;0.10;0.10;;;;;;;9.17;100.00;100761.81;6213603;23;20011;-81
2022/12/27 12:18:08;;;;;;;0.00;0.00;;;;;;;8.89;100.00;100788.06;6139449;23;20015;-82
2022/12/27 12:20:40;;;;;;;0.00;0.00;;;;;;;8.56;100.00;100754.22;6217521;23;20023;-82
2022/12/27 12:23:30;;;;;;;0.00;0.00;;;;;;;8.21;100.00;100738.81;6217075;23;20056;-80
2022/12/27 12:26:12;;;;;;;0.00;0.00;;;;;;;8.23;100.00;100744.00;6218183;23;20505;-80
2022/12/27 12:29:14;;;;;;;0.00;0.00;;;;;;;8.29;100.00;100737.59;6213076;23;20001;-80
2022/12/27 12:32:34;;;;;;;0.00;0.00;;;;;;;8.59;100.00;100719.38;6209957;23;20008;-80
2022/12/27 12:35:17;;;;;;;0.00;0.00;;;;;;;8.83;100.00;100720.84;6155187;23;20088;-79
2022/12/27 12:37:53;;;;;;;0.00;0.00;;;;;;;9.00;100.00;100706.41;6210443;23;20095;-80
2022/12/27 12:40:40;;;;;;;0.10;0.10;;;;;;;9.25;100.00;100706.78;6210273;23;20309;-80
2022/12/27 12:44:02;;;;;;;0.00;0.00;;;;;;;9.58;100.00;100705.09;6216096;23;20046;-79
2022/12/27 12:46:40;;;;;;;0.00;0.00;;;;;;;9.87;100.00;100683.06;6130777;23;20474;-80
2022/12/27 12:49:51;;;;;;;0.00;0.00;;;;;;;10.02;100.00;100687.06;6216802;23;20095;-80
2022/12/27 12:52:51;;;;;;;0.00;0.00;;;;;;;9.93;100.00;100687.50;6210671;23;19993;-80
2022/12/27 12:55:29;;;;;;;0.00;0.00;;;;;;;9.87;100.00;100671.28;6219703;23;20000;-79
2022/12/27 12:58:18;;;;;;;0.00;0.00;;;;;;;9.58;100.00;100661.41;6215315;23;20016;-80
2022/12/27 13:01:18;;;;;;;0.00;0.00;;;;;;;9.51;100.00;100671.69;6212011;23;20004;-79
2022/12/27 13:04:04;;;;;;;0.00;0.00;;;;;;;9.45;100.00;100661.78;6199835;23;20019;-79
2022/12/27 13:06:57;;;;;;;0.00;0.00;;;;;;;9.50;100.00;100658.28;6211123;23;20055;-78
2022/12/27 13:09:41;;;;;;;0.00;0.00;;;;;;;9.43;100.00;100670.22;6209222;23;20297;-78
2022/12/27 13:12:12;;;;;;;0.00;0.00;;;;;;;9.23;100.00;100648.94;6207290;23;20007;-80
2022/12/27 13:15:15;;;;;;;0.10;0.10;;;;;;;9.25;100.00;100643.22;6212350;23;20009;-80
2022/12/27 13:18:04;;;;;;;0.00;0.00;;;;;;;9.23;100.00;100629.81;6211307;23;20407;-78
2022/12/27 13:20:46;;;;;;;0.00;0.00;;;;;;;9.26;100.00;100648.41;6206206;23;20017;-78
2022/12/27 13:27:03;;;;;;;0.00;0.00;;;;;;;8.86;100.00;100627.66;6074410;23;20007;-79
2022/12/27 13:30:01;;;;;;;0.00;0.00;;;;;;;8.81;100.00;100641.22;6213779;23;20007;-79
2022/12/27 13:32:33;;;;;;;0.00;0.00;;;;;;;8.73;100.00;100630.72;6210592;23;20054;-78
2022/12/27 13:35:19;;;;;;;0.00;0.00;;;;;;;8.54;100.00;100622.81;6209991;23;20633;-81
2022/12/27 13:38:24;;;;;;;0.00;0.00;;;;;;;8.42;100.00;100619.28;6209124;23;20004;-79
2022/12/27 13:41:17;;;;;;;0.00;0.00;;;;;;;8.21;100.00;100613.50;6206479;23;20015;-77
2022/12/27 13:43:43;;;;;;;0.00;0.00;;;;;;;8.04;100.00;100612.63;6206171;23;20082;-77
2022/12/27 13:46:47;;;;;;;0.00;0.00;;;;;;;7.87;100.00;100593.56;6211419;23;20032;-78
2022/12/27 13:49:53;;;;;;;0.00;0.00;;;;;;;7.84;100.00;100588.56;6168940;23;20356;-78
2022/12/27 13:52:47;;;;;;;0.00;0.00;;;;;;;7.86;100.00;100602.78;6206786;23;20001;-77
2022/12/27 13:56:03;;;;;;;0.00;0.00;;;;;;;7.88;100.00;100599.81;6210642;23;20593;-77
2022/12/27 13:59:00;;;;;;;0.00;0.00;;;;;;;7.83;100.00;100595.91;6121933;23;20516;-77